Terminal Aerodrome Forecast
Issued by NWS Grand Forks, ND

Home | Current Version | Previous Version | Text Only | Print | Product List | Glossary Off
Versions: 1 2 3 4 5 6 7 8 9 10 11 12 13 14 15 16 17 18 19 20

000
FTUS43 KFGF 232339
TAFFAR
TAF
KFAR 232339Z 2400/2424 14007KT P6SM OVC012
      TEMPO 2400/2402 3SM -RA BR OVC007
     FM240200 09006KT P6SM OVC035
     FM240400 04005KT P6SM OVC015
     FM240900 36007KT 4SM BR BKN015
     FM241200 36012KT P6SM SCT040=

USA.gov is the U.S. government's official web portal to all federal, state and local government web resources and services.